Stations météo

Publicité
Dalwhinnie, Grande-Bretagne (99005): Température de l'air & dewpoint: 21.04.2018 01:00:00 - 27.04.2018 01:00:00 (BST)Dalwhinnie, Grande-Bretagne (99005): Quantités de précipitations: 21.04.2018 01:00:00 - 27.04.2018 01:00:00 (BST)
Date & Time tt [°C] td [°C] rr [mm]
27.04.2018 01:00:00 3,9 2,0 0,0
27.04.2018 00:00:00 3,5 1,7 0,0
26.04.2018 23:00:00 3,6 1,9 0,0
26.04.2018 22:00:00 3,8 2,1 0,2
26.04.2018 21:00:00 4,4 2,3 0,2
26.04.2018 20:00:00 4,9 3,0 0,4
26.04.2018 19:00:00 5,8 2,6 0,0
26.04.2018 18:00:00 5,8 2,5 0,8
26.04.2018 17:00:00 8,0 3,4 0,0
26.04.2018 16:00:00 7,0 2,7 0,0
26.04.2018 15:00:00 7,1 3,8 0,2
26.04.2018 14:00:00 8,3 4,0 0,4
26.04.2018 13:00:00 8,3 3,6 0,0
26.04.2018 12:00:00 7,1 3,3 0,0
26.04.2018 11:00:00 6,4 2,1 0,0
26.04.2018 10:00:00 5,3 2,6 0,0
26.04.2018 09:00:00 - - 0,0
26.04.2018 08:00:00 - - 0,0
26.04.2018 07:00:00 - - 0,0
26.04.2018 06:00:00 - - 0,0
26.04.2018 05:00:00 - - 0,4
26.04.2018 04:00:00 - - 0,0
26.04.2018 03:00:00 - - 0,4
26.04.2018 02:00:00 - - 0,4
26.04.2018 01:00:00 - - 0,0
26.04.2018 00:00:00 - - 0,0
25.04.2018 23:00:00 - - 0,0
25.04.2018 22:00:00 - - 0,2
25.04.2018 21:00:00 - - 0,0
25.04.2018 20:00:00 - - 0,8
25.04.2018 19:00:00 - - 1,0
25.04.2018 18:00:00 - - 0,0
25.04.2018 17:00:00 - - 0,0
25.04.2018 16:00:00 - - 0,0
25.04.2018 15:00:00 - - 0,2
25.04.2018 14:00:00 - - 0,8
25.04.2018 13:00:00 - - 0,2
25.04.2018 12:00:00 6,3 3,5 0,0
25.04.2018 11:00:00 4,7 3,0 0,6
25.04.2018 10:00:00 6,6 3,1 0,0
25.04.2018 09:00:00 5,4 2,9 0,0
25.04.2018 08:00:00 5,2 3,6 0,0
25.04.2018 07:00:00 4,1 2,7 0,0
25.04.2018 06:00:00 3,6 2,5 0,2
25.04.2018 05:00:00 3,6 2,4 0,0
25.04.2018 04:00:00 2,5 1,6 0,0
25.04.2018 03:00:00 3,2 1,8 0,0
25.04.2018 02:00:00 2,5 1,6 0,0
25.04.2018 01:00:00 4,2 2,8 0,0
25.04.2018 00:00:00 3,7 2,8 0,0
24.04.2018 23:00:00 4,7 2,7 0,0
24.04.2018 22:00:00 4,7 2,9 0,0
24.04.2018 21:00:00 5,3 2,7 0,0
24.04.2018 20:00:00 6,1 3,6 0,2
24.04.2018 19:00:00 7,8 3,1 0,0
24.04.2018 18:00:00 8,0 3,2 0,0
24.04.2018 17:00:00 8,5 3,6 0,0
24.04.2018 16:00:00 7,7 4,5 0,2
24.04.2018 15:00:00 10,0 4,5 0,0
24.04.2018 14:00:00 9,2 2,4 0,0
24.04.2018 13:00:00 9,2 2,7 0,0
24.04.2018 12:00:00 9,3 0,4 0,0
24.04.2018 11:00:00 8,1 1,6 0,0
24.04.2018 10:00:00 7,2 2,2 0,0
24.04.2018 09:00:00 5,5 3,2 0,2
24.04.2018 08:00:00 5,2 2,4 0,0
24.04.2018 07:00:00 5,8 1,1 0,0
24.04.2018 06:00:00 5,5 1,5 0,0
24.04.2018 05:00:00 5,5 1,7 0,0
24.04.2018 04:00:00 5,8 2,3 0,0
24.04.2018 03:00:00 5,9 2,7 0,0
24.04.2018 02:00:00 6,0 2,6 0,0
24.04.2018 01:00:00 5,9 3,3 0,0
24.04.2018 00:00:00 6,1 2,9 0,0
23.04.2018 23:00:00 7,4 5,7 0,0
23.04.2018 22:00:00 8,2 6,3 0,2
23.04.2018 21:00:00 7,1 6,5 0,4
23.04.2018 20:00:00 7,0 5,8 0,2
23.04.2018 19:00:00 7,0 5,6 0,0
23.04.2018 18:00:00 6,9 5,4 0,2
23.04.2018 17:00:00 6,8 5,5 0,2
23.04.2018 16:00:00 8,6 4,5 0,0
23.04.2018 15:00:00 9,2 4,0 0,0
23.04.2018 14:00:00 7,8 3,1 0,0
23.04.2018 13:00:00 7,7 5,8 0,0
23.04.2018 12:00:00 8,5 3,3 0,0
23.04.2018 11:00:00 7,9 3,4 0,0
23.04.2018 10:00:00 7,3 4,0 0,0
23.04.2018 09:00:00 6,6 4,3 0,0
23.04.2018 08:00:00 6,7 4,8 0,2
23.04.2018 07:00:00 6,7 4,9 0,0
23.04.2018 06:00:00 6,6 4,8 0,0
23.04.2018 05:00:00 6,5 4,6 0,0
23.04.2018 04:00:00 6,7 4,4 0,0
23.04.2018 03:00:00 6,3 4,6 1,0
23.04.2018 02:00:00 6,5 4,9 0,6
23.04.2018 01:00:00 6,2 4,7 0,0
23.04.2018 00:00:00 5,9 3,7 0,0
22.04.2018 23:00:00 6,3 5,1 0,2
22.04.2018 22:00:00 6,5 5,7 0,0
22.04.2018 21:00:00 6,3 5,4 0,0
22.04.2018 20:00:00 6,5 5,1 0,0
22.04.2018 19:00:00 7,6 3,8 0,0
22.04.2018 18:00:00 8,7 2,9 0,0
22.04.2018 17:00:00 9,7 4,1 0,0
22.04.2018 16:00:00 8,1 4,3 0,2
22.04.2018 15:00:00 8,7 5,1 0,0
22.04.2018 14:00:00 7,3 5,7 0,0
22.04.2018 13:00:00 8,9 5,0 0,0
22.04.2018 12:00:00 8,1 5,5 0,0
22.04.2018 11:00:00 8,4 5,0 0,0
22.04.2018 10:00:00 8,6 5,7 0,0
22.04.2018 09:00:00 8,6 4,4 0,0
22.04.2018 08:00:00 9,3 5,3 0,0
22.04.2018 07:00:00 7,9 4,6 0,0
22.04.2018 06:00:00 9,1 4,4 0,0
22.04.2018 05:00:00 8,8 4,6 0,0
22.04.2018 04:00:00 8,4 3,6 0,0
22.04.2018 03:00:00 6,1 2,1 0,0
22.04.2018 02:00:00 7,5 2,9 0,0
22.04.2018 01:00:00 6,7 2,3 0,0
22.04.2018 00:00:00 10,1 2,6 0,0
21.04.2018 23:00:00 9,1 3,9 0,0
21.04.2018 22:00:00 9,1 4,7 0,0
21.04.2018 21:00:00 10,1 5,2 0,0
21.04.2018 20:00:00 12,3 3,9 0,0
21.04.2018 19:00:00 13,5 4,3 0,0
21.04.2018 18:00:00 13,9 3,8 0,0
21.04.2018 17:00:00 14,0 3,4 0,0
21.04.2018 16:00:00 13,4 3,4 0,0
21.04.2018 15:00:00 14,1 4,5 0,0
21.04.2018 14:00:00 12,7 5,2 0,0
21.04.2018 13:00:00 10,6 4,4 0,0
21.04.2018 12:00:00 10,6 4,2 0,0
21.04.2018 11:00:00 10,4 5,2 0,0
21.04.2018 10:00:00 9,5 4,3 0,0
21.04.2018 09:00:00 8,2 3,2 0,0
21.04.2018 08:00:00 6,9 4,0 0,0
21.04.2018 07:00:00 3,6 2,2 0,0
21.04.2018 06:00:00 5,1 3,9 0,0
21.04.2018 05:00:00 5,1 4,3 0,0
21.04.2018 04:00:00 2,0 1,7 0,0
21.04.2018 03:00:00 0,7 0,1 0,0
21.04.2018 02:00:00 1,8 1,1 0,0
21.04.2018 01:00:00 2,8 1,5 0,0

tt = Température de l'air
td = dewpoint
rr = Quantités de précipitations

stations d'obs. à proximité